createdAt,value
2018-10-17T00:00:33.433Z,11.40
2018-10-17T00:01:33.413Z,10.80
2018-10-17T00:02:33.396Z,11.00
2018-10-17T00:03:33.375Z,11.70
2018-10-17T00:04:33.356Z,10.80
2018-10-17T00:05:33.333Z,10.40
2018-10-17T00:06:33.310Z,11.30
2018-10-17T00:07:33.290Z,11.70
2018-10-17T00:08:33.270Z,11.20
2018-10-17T00:09:33.251Z,10.80
2018-10-17T00:10:33.226Z,10.80
2018-10-17T00:11:33.205Z,11.60
2018-10-17T00:12:33.185Z,10.90
2018-10-17T00:13:33.167Z,11.60
2018-10-17T00:14:33.145Z,11.10
2018-10-17T00:15:33.123Z,11.30
2018-10-17T00:16:33.107Z,11.80
2018-10-17T00:17:33.079Z,13.80
2018-10-17T00:18:33.064Z,12.10
2018-10-17T00:19:33.042Z,11.60
2018-10-17T00:20:33.036Z,12.20
2018-10-17T00:21:33.000Z,11.20
2018-10-17T00:22:32.980Z,11.90
2018-10-17T00:23:32.961Z,11.60
2018-10-17T00:24:32.938Z,11.90
2018-10-17T00:25:32.917Z,11.00
2018-10-17T00:26:32.898Z,12.10
2018-10-17T00:27:32.876Z,12.00
2018-10-17T00:28:32.855Z,10.70
2018-10-17T00:29:32.839Z,11.10
2018-10-17T00:30:32.811Z,11.60
2018-10-17T00:31:32.789Z,11.50
2018-10-17T00:32:32.772Z,11.10
2018-10-17T00:33:32.755Z,10.40
2018-10-17T00:34:32.732Z,11.50
2018-10-17T00:35:32.707Z,11.00
2018-10-17T00:36:32.688Z,11.00
2018-10-17T00:37:32.668Z,12.30
2018-10-17T00:38:32.642Z,11.20
2018-10-17T00:39:32.622Z,11.40
2018-10-17T00:40:32.657Z,11.00
2018-10-17T00:41:32.581Z,11.30
2018-10-17T00:42:32.564Z,12.00
2018-10-17T00:43:32.545Z,10.80
2018-10-17T00:44:32.520Z,11.30
2018-10-17T00:45:32.504Z,11.80
2018-10-17T00:46:32.478Z,11.90
2018-10-17T00:47:32.459Z,12.80
2018-10-17T00:48:32.440Z,12.30
2018-10-17T00:49:32.420Z,12.60
2018-10-17T00:50:32.398Z,11.90
2018-10-17T00:51:32.375Z,12.10
2018-10-17T00:52:32.355Z,11.50
2018-10-17T00:53:32.336Z,11.50
2018-10-17T00:54:32.316Z,12.10
2018-10-17T00:55:32.292Z,11.20
2018-10-17T00:56:32.273Z,11.70
2018-10-17T00:57:32.251Z,12.30
2018-10-17T00:58:32.228Z,11.90
2018-10-17T00:59:32.209Z,12.10
2018-10-17T01:00:32.187Z,11.50
2018-10-17T01:01:32.167Z,11.90
2018-10-17T01:02:32.149Z,12.00
2018-10-17T01:03:32.123Z,12.00
2018-10-17T01:04:32.105Z,12.60
2018-10-17T01:05:32.084Z,13.20
2018-10-17T01:06:32.063Z,13.30
2018-10-17T01:07:32.041Z,12.60
2018-10-17T01:08:32.020Z,12.60
2018-10-17T01:09:32.001Z,12.50
2018-10-17T01:10:31.979Z,12.30
2018-10-17T01:11:31.959Z,12.90
2018-10-17T01:12:31.939Z,12.40
2018-10-17T01:13:31.917Z,12.80
2018-10-17T01:14:31.895Z,12.70
2018-10-17T01:15:31.875Z,11.80
2018-10-17T01:16:31.851Z,12.00
2018-10-17T01:17:31.833Z,12.30
2018-10-17T01:18:31.813Z,13.00
2018-10-17T01:19:31.796Z,12.00
2018-10-17T01:20:31.769Z,11.70
2018-10-17T01:21:31.754Z,11.50
2018-10-17T01:22:31.731Z,12.80
2018-10-17T01:23:31.703Z,12.30
2018-10-17T01:24:31.685Z,11.70
2018-10-17T01:25:31.666Z,12.30
2018-10-17T01:26:31.642Z,12.10
2018-10-17T01:27:31.623Z,12.00
2018-10-17T01:28:31.602Z,13.20
2018-10-17T01:29:31.578Z,12.40
2018-10-17T01:30:31.559Z,12.10
2018-10-17T01:31:31.544Z,11.10
2018-10-17T01:32:31.519Z,11.90
2018-10-17T01:33:31.497Z,11.20
2018-10-17T01:34:31.478Z,12.00
2018-10-17T01:35:31.456Z,11.10
2018-10-17T01:36:31.433Z,11.60
2018-10-17T01:37:31.411Z,11.80
2018-10-17T01:38:31.388Z,11.40
2018-10-17T01:39:31.370Z,12.30
2018-10-17T01:40:31.357Z,11.80
2018-10-17T01:41:31.324Z,11.70
2018-10-17T01:42:31.309Z,10.80
2018-10-17T01:43:31.289Z,13.70
2018-10-17T01:44:31.260Z,12.60
2018-10-17T01:45:31.242Z,11.70
2018-10-17T01:46:31.222Z,11.00
2018-10-17T01:47:31.202Z,12.00
2018-10-17T01:48:31.176Z,10.90
2018-10-17T01:49:31.164Z,11.70
2018-10-17T01:50:31.136Z,11.50
2018-10-17T01:51:31.115Z,11.70
2018-10-17T01:52:31.097Z,11.80
2018-10-17T01:53:31.074Z,11.50
2018-10-17T01:54:31.052Z,11.50
2018-10-17T01:55:31.032Z,11.50
2018-10-17T01:56:31.012Z,11.60
2018-10-17T01:57:30.986Z,10.80
2018-10-17T01:58:30.972Z,11.40
2018-10-17T01:59:30.950Z,10.80
2018-10-17T02:00:30.928Z,10.20
2018-10-17T02:01:30.906Z,11.30
2018-10-17T02:02:30.884Z,11.50
2018-10-17T02:03:30.864Z,11.50
2018-10-17T02:04:30.842Z,11.30
2018-10-17T02:05:30.820Z,11.40
2018-10-17T02:06:30.798Z,10.70
2018-10-17T02:07:30.780Z,11.20
2018-10-17T02:08:30.760Z,10.60
2018-10-17T02:09:30.738Z,10.80
2018-10-17T02:10:30.718Z,10.20
2018-10-17T02:11:30.694Z,10.70
2018-10-17T02:12:30.674Z,11.20
2018-10-17T02:13:30.652Z,11.70
2018-10-17T02:14:30.636Z,11.40
2018-10-17T02:15:30.615Z,10.80
2018-10-17T02:16:30.589Z,10.90
2018-10-17T02:17:30.568Z,10.40
2018-10-17T02:18:30.553Z,10.50
2018-10-17T02:19:30.525Z,11.10
2018-10-17T02:20:30.503Z,10.50
2018-10-17T02:21:30.491Z,11.40
2018-10-17T02:22:30.460Z,11.30
2018-10-17T02:23:30.441Z,15.10
2018-10-17T02:24:30.419Z,11.10
2018-10-17T02:25:30.398Z,11.80
2018-10-17T02:26:30.397Z,11.60
2018-10-17T02:27:30.358Z,11.80
2018-10-17T02:28:30.343Z,11.50
2018-10-17T02:29:30.313Z,11.10
2018-10-17T02:30:30.292Z,11.00
2018-10-17T02:31:30.277Z,10.90
2018-10-17T02:32:30.251Z,11.40
2018-10-17T02:33:30.235Z,10.60
2018-10-17T02:34:30.210Z,11.10
2018-10-17T02:35:30.183Z,10.60
2018-10-17T02:36:30.168Z,11.10
2018-10-17T02:37:30.148Z,10.80
2018-10-17T02:38:30.129Z,11.00
2018-10-17T02:39:30.129Z,10.70
2018-10-17T02:40:30.081Z,11.70
2018-10-17T02:41:30.060Z,11.10
2018-10-17T02:42:30.058Z,11.40
2018-10-17T02:43:30.018Z,10.70
2018-10-17T02:44:29.995Z,10.80
2018-10-17T02:45:29.976Z,10.60
2018-10-17T02:46:29.957Z,10.90
2018-10-17T02:47:29.935Z,10.90
2018-10-17T02:48:29.912Z,10.70
2018-10-17T02:49:29.889Z,11.00
2018-10-17T02:50:29.873Z,10.80
2018-10-17T02:51:29.854Z,10.20
2018-10-17T02:52:29.826Z,11.00
2018-10-17T02:53:29.806Z,10.90
2018-10-17T02:54:29.782Z,10.50
2018-10-17T02:55:29.771Z,11.00
2018-10-17T02:56:29.743Z,11.50
2018-10-17T02:57:29.725Z,11.10
2018-10-17T02:58:29.694Z,10.50
2018-10-17T02:59:29.680Z,10.90
2018-10-17T03:00:29.658Z,11.40
2018-10-17T03:01:29.649Z,11.10
2018-10-17T03:02:29.617Z,11.00
2018-10-17T03:03:29.596Z,10.70
2018-10-17T03:04:29.581Z,10.80
2018-10-17T03:05:29.554Z,10.80
2018-10-17T03:06:29.530Z,10.80
2018-10-17T03:07:29.510Z,10.70
2018-10-17T03:08:29.497Z,10.80
2018-10-17T03:09:29.465Z,10.60
2018-10-17T03:10:29.446Z,10.70
2018-10-17T03:11:29.425Z,11.00
2018-10-17T03:12:29.402Z,10.90
2018-10-17T03:13:29.382Z,10.70
2018-10-17T03:14:29.357Z,10.50
2018-10-17T03:15:29.337Z,10.60
2018-10-17T03:16:29.326Z,10.70
2018-10-17T03:17:29.299Z,10.40
2018-10-17T03:18:29.271Z,10.50
2018-10-17T03:19:29.256Z,9.70
2018-10-17T03:20:29.233Z,10.70
2018-10-17T03:21:29.213Z,10.20
2018-10-17T03:22:29.190Z,10.30
2018-10-17T03:23:29.172Z,10.40
2018-10-17T03:24:29.152Z,10.10
2018-10-17T03:25:29.123Z,9.90
2018-10-17T03:26:29.104Z,10.50
2018-10-17T03:27:29.084Z,10.20
2018-10-17T03:28:29.073Z,10.70
2018-10-17T03:29:29.040Z,11.10
2018-10-17T03:30:29.018Z,10.30
2018-10-17T03:31:29.118Z,10.90
2018-10-17T03:32:28.979Z,10.10
2018-10-17T03:33:28.967Z,10.00
2018-10-17T03:34:28.933Z,10.70
2018-10-17T03:35:28.914Z,10.80
2018-10-17T03:36:28.891Z,10.40
2018-10-17T03:37:28.868Z,10.30
2018-10-17T03:38:28.852Z,9.90
2018-10-17T03:39:28.828Z,10.00
2018-10-17T03:40:28.807Z,10.30
2018-10-17T03:41:28.783Z,10.60
2018-10-17T03:42:28.759Z,10.60
2018-10-17T03:43:28.750Z,10.20
2018-10-17T03:44:28.726Z,11.20
2018-10-17T03:45:28.704Z,10.80
2018-10-17T03:46:28.676Z,10.40
2018-10-17T03:47:28.654Z,10.60
2018-10-17T03:48:28.638Z,10.40
2018-10-17T03:49:28.631Z,10.40
2018-10-17T03:50:28.581Z,10.50
2018-10-17T03:51:28.570Z,10.40
2018-10-17T03:52:28.553Z,10.20
2018-10-17T03:53:28.538Z,10.90
2018-10-17T03:54:28.510Z,10.80
2018-10-17T03:55:28.486Z,11.20
2018-10-17T03:56:28.469Z,11.20
2018-10-17T03:57:28.441Z,11.40
2018-10-17T03:58:28.420Z,10.70
2018-10-17T03:59:28.430Z,11.60
2018-10-17T04:00:28.380Z,10.10
2018-10-17T04:01:28.359Z,10.80
2018-10-17T04:02:28.335Z,10.30
2018-10-17T04:03:28.317Z,11.20
2018-10-17T04:04:28.294Z,11.20
2018-10-17T04:05:28.269Z,10.50
2018-10-17T04:06:28.251Z,10.40
2018-10-17T04:07:28.227Z,10.60
2018-10-17T04:08:28.208Z,11.20
2018-10-17T04:09:28.187Z,10.50
2018-10-17T04:10:28.166Z,10.40
2018-10-17T04:11:28.140Z,9.90
2018-10-17T04:12:28.125Z,10.60
2018-10-17T04:13:28.101Z,9.80
2018-10-17T04:14:28.077Z,10.90
2018-10-17T04:15:28.057Z,10.30
2018-10-17T04:16:28.036Z,11.70
2018-10-17T04:17:28.017Z,11.10
2018-10-17T04:18:27.991Z,11.10
2018-10-17T04:19:27.971Z,11.10
2018-10-17T04:20:27.955Z,11.80
2018-10-17T04:21:27.921Z,10.80
2018-10-17T04:22:27.967Z,11.10
2018-10-17T04:23:27.887Z,10.50
2018-10-17T04:24:27.864Z,10.70
2018-10-17T04:25:27.847Z,11.00
2018-10-17T04:26:27.824Z,11.20
2018-10-17T04:27:27.805Z,10.70
2018-10-17T04:28:27.777Z,11.00
2018-10-17T04:29:27.756Z,11.60
2018-10-17T04:30:27.733Z,10.60
2018-10-17T04:31:27.713Z,11.20
2018-10-17T04:32:27.693Z,11.50
2018-10-17T04:33:27.671Z,12.40
2018-10-17T04:34:27.648Z,11.30
2018-10-17T04:35:27.629Z,11.10
2018-10-17T04:36:27.606Z,11.90
2018-10-17T04:37:27.582Z,11.10
2018-10-17T04:38:27.577Z,10.80
2018-10-17T04:39:27.542Z,11.10
2018-10-17T04:40:27.520Z,10.50
2018-10-17T04:41:27.497Z,10.60
2018-10-17T04:42:27.479Z,10.80
2018-10-17T04:43:27.459Z,11.00
2018-10-17T04:44:27.432Z,11.50
2018-10-17T04:45:27.412Z,11.50
2018-10-17T04:46:27.390Z,11.90
2018-10-17T04:47:27.392Z,12.20
2018-10-17T04:48:27.348Z,11.30
2018-10-17T04:49:27.331Z,12.10
2018-10-17T04:50:27.304Z,12.20
2018-10-17T04:51:27.285Z,11.50
2018-10-17T04:52:27.264Z,11.70
2018-10-17T04:53:27.242Z,11.80
2018-10-17T04:54:27.220Z,11.60
2018-10-17T04:55:27.201Z,11.40
2018-10-17T04:56:27.176Z,11.20
2018-10-17T04:57:27.155Z,11.70
2018-10-17T04:58:27.134Z,11.50
2018-10-17T04:59:27.110Z,10.70
2018-10-17T05:00:27.093Z,11.80
2018-10-17T05:01:27.070Z,11.70
2018-10-17T05:02:27.055Z,12.20
2018-10-17T05:03:27.026Z,13.10
2018-10-17T05:04:27.090Z,12.30
2018-10-17T05:05:26.984Z,12.70
2018-10-17T05:06:26.962Z,12.60
2018-10-17T05:07:26.988Z,12.00
2018-10-17T05:08:26.923Z,11.80
2018-10-17T05:09:26.904Z,11.90
2018-10-17T05:10:26.879Z,11.70
2018-10-17T05:11:26.856Z,12.30
2018-10-17T05:12:26.834Z,12.20
2018-10-17T05:13:26.814Z,12.30
2018-10-17T05:14:26.796Z,11.70
2018-10-17T05:15:26.768Z,13.20
2018-10-17T05:16:26.748Z,12.50
2018-10-17T05:17:26.726Z,12.30
2018-10-17T05:18:26.700Z,12.20
2018-10-17T05:19:26.687Z,12.50
2018-10-17T05:20:26.660Z,12.60
2018-10-17T05:21:26.637Z,11.10
2018-10-17T05:22:26.616Z,12.60
2018-10-17T05:23:26.594Z,11.60
2018-10-17T05:24:26.574Z,12.40
2018-10-17T05:25:26.562Z,12.50
2018-10-17T05:26:26.532Z,11.70
2018-10-17T05:27:26.514Z,11.80
2018-10-17T05:28:26.486Z,11.40
2018-10-17T05:29:26.466Z,11.20
2018-10-17T05:30:26.452Z,11.80
2018-10-17T05:31:26.426Z,11.80
2018-10-17T05:32:26.400Z,11.50
2018-10-17T05:33:26.379Z,12.10
2018-10-17T05:34:26.362Z,12.00
2018-10-17T05:35:26.334Z,12.80
2018-10-17T05:36:26.314Z,12.30
2018-10-17T05:37:26.301Z,11.70
2018-10-17T05:38:26.272Z,11.90
2018-10-17T05:39:26.260Z,11.80
2018-10-17T05:40:26.228Z,12.30
2018-10-17T05:41:26.205Z,11.60
2018-10-17T05:42:26.186Z,11.60
2018-10-17T05:43:26.162Z,12.40
2018-10-17T05:44:26.186Z,11.50
2018-10-17T05:45:26.126Z,11.70
2018-10-17T05:46:26.101Z,11.10
2018-10-17T05:47:26.076Z,11.90
2018-10-17T05:48:26.054Z,12.10
2018-10-17T05:49:26.037Z,11.80
2018-10-17T05:50:26.012Z,11.50
2018-10-17T05:51:25.994Z,11.90
2018-10-17T05:52:25.973Z,11.80
2018-10-17T05:53:25.946Z,12.60
2018-10-17T05:54:25.924Z,12.30
2018-10-17T05:55:25.967Z,12.00
2018-10-17T05:56:25.883Z,12.20
2018-10-17T05:57:25.864Z,12.40
2018-10-17T05:58:25.841Z,11.80
2018-10-17T05:59:25.820Z,12.70
2018-10-17T06:00:25.799Z,13.10
2018-10-17T06:01:25.845Z,12.80
2018-10-17T06:02:25.882Z,12.60
2018-10-17T06:03:25.736Z,12.80
2018-10-17T06:04:25.708Z,12.50
2018-10-17T06:05:25.691Z,12.60
2018-10-17T06:06:25.665Z,12.80
2018-10-17T06:07:25.646Z,12.80
2018-10-17T06:08:25.632Z,12.90
2018-10-17T06:09:25.617Z,12.50
2018-10-17T06:10:25.669Z,12.90
2018-10-17T06:11:25.565Z,11.90
2018-10-17T06:12:25.540Z,13.10
2018-10-17T06:13:25.520Z,12.90
2018-10-17T06:14:25.496Z,12.30
2018-10-17T06:15:25.476Z,13.00
2018-10-17T06:16:25.454Z,12.80
2018-10-17T06:17:25.467Z,13.10
2018-10-17T06:18:25.406Z,13.20
2018-10-17T06:19:25.391Z,20.30
2018-10-17T06:20:25.368Z,14.20
2018-10-17T06:21:25.347Z,12.70
2018-10-17T06:22:25.321Z,13.40
2018-10-17T06:23:25.314Z,13.90
2018-10-17T06:24:25.283Z,14.50
2018-10-17T06:25:25.258Z,13.90
2018-10-17T06:26:25.234Z,13.30
2018-10-17T06:27:25.225Z,12.80
2018-10-17T06:28:25.296Z,13.20
2018-10-17T06:29:25.171Z,12.70
2018-10-17T06:30:25.173Z,13.60
2018-10-17T06:31:25.134Z,12.90
2018-10-17T06:32:25.110Z,11.60
2018-10-17T06:33:25.084Z,12.40
2018-10-17T06:34:25.123Z,12.20
2018-10-17T06:35:25.041Z,12.80
2018-10-17T06:36:25.024Z,12.80
2018-10-17T06:37:24.997Z,13.40
2018-10-17T06:38:24.977Z,13.20
2018-10-17T06:39:24.981Z,13.10
2018-10-17T06:40:24.938Z,13.30
2018-10-17T06:41:24.914Z,14.50
2018-10-17T06:42:24.892Z,16.60
2018-10-17T06:43:24.915Z,16.50
2018-10-17T06:44:24.852Z,14.00
2018-10-17T06:45:24.826Z,16.10
2018-10-17T06:46:24.815Z,15.90
2018-10-17T06:47:24.790Z,15.20
2018-10-17T06:48:24.768Z,13.60
2018-10-17T06:49:24.744Z,15.90
2018-10-17T06:50:24.722Z,15.20
2018-10-17T06:51:24.704Z,14.90
2018-10-17T06:52:24.679Z,15.50
2018-10-17T06:53:24.658Z,15.30
2018-10-17T06:54:24.705Z,14.50
2018-10-17T06:55:24.613Z,15.10
2018-10-17T06:56:24.600Z,14.90
2018-10-17T06:57:24.572Z,15.70
2018-10-17T06:58:24.551Z,15.30
2018-10-17T06:59:24.536Z,15.30
2018-10-17T07:00:24.511Z,14.40
2018-10-17T07:01:24.494Z,15.80
2018-10-17T07:02:24.562Z,15.30
2018-10-17T07:03:24.446Z,15.40
2018-10-17T07:04:24.421Z,15.40
2018-10-17T07:05:24.402Z,15.80
2018-10-17T07:06:24.382Z,17.30
2018-10-17T07:07:24.363Z,16.40
2018-10-17T07:08:24.391Z,16.00
2018-10-17T07:09:24.318Z,17.40
2018-10-17T07:10:24.300Z,16.60
2018-10-17T07:11:24.280Z,17.20
2018-10-17T07:12:24.277Z,17.90
2018-10-17T07:13:24.234Z,17.90
2018-10-17T07:14:24.211Z,18.50
2018-10-17T07:15:24.371Z,19.20
2018-10-17T07:16:24.176Z,18.70
2018-10-17T07:17:24.153Z,18.00
2018-10-17T07:18:24.130Z,17.40
2018-10-17T07:19:24.107Z,18.00
2018-10-17T07:20:24.092Z,17.70
2018-10-17T07:21:24.067Z,16.70
2018-10-17T07:22:24.053Z,16.40
2018-10-17T07:23:24.027Z,18.20
2018-10-17T07:24:24.055Z,18.40
2018-10-17T07:25:23.986Z,19.30
2018-10-17T07:26:23.970Z,18.50
2018-10-17T07:27:23.946Z,19.40
2018-10-17T07:28:23.923Z,19.00
2018-10-17T07:29:24.042Z,18.40
2018-10-17T07:30:23.896Z,18.40
2018-10-17T07:31:23.863Z,18.60
2018-10-17T07:32:23.840Z,19.50
2018-10-17T07:33:23.826Z,20.40
2018-10-17T07:34:23.798Z,20.20
2018-10-17T07:35:23.779Z,19.10
2018-10-17T07:36:23.763Z,20.00
2018-10-17T07:37:23.735Z,19.90
2018-10-17T07:38:23.717Z,20.70
2018-10-17T07:39:23.696Z,20.00
2018-10-17T07:40:23.680Z,21.10
2018-10-17T07:41:23.669Z,20.90
2018-10-17T07:42:23.634Z,20.20
2018-10-17T07:43:23.622Z,19.30
2018-10-17T07:44:23.596Z,19.90
2018-10-17T07:45:23.635Z,19.70
2018-10-17T07:46:23.553Z,19.20
2018-10-17T07:47:23.534Z,21.10
2018-10-17T07:48:23.516Z,19.30
2018-10-17T07:49:23.495Z,19.70
2018-10-17T07:50:23.471Z,20.90
2018-10-17T07:51:23.461Z,21.40
2018-10-17T07:52:23.434Z,20.60
2018-10-17T07:53:23.475Z,19.80
2018-10-17T07:54:23.393Z,20.90
2018-10-17T07:55:23.379Z,21.50
2018-10-17T07:56:23.352Z,21.10
2018-10-17T07:57:23.334Z,20.90
2018-10-17T07:58:23.316Z,21.20
2018-10-17T07:59:23.293Z,21.60
2018-10-17T08:00:23.349Z,21.70
2018-10-17T08:01:23.255Z,22.50
2018-10-17T08:02:23.235Z,21.90
2018-10-17T08:03:23.215Z,21.30
2018-10-17T08:04:23.196Z,21.10
2018-10-17T08:05:23.173Z,23.00
2018-10-17T08:06:23.214Z,21.70
2018-10-17T08:07:23.137Z,21.90
2018-10-17T08:08:23.118Z,20.80
2018-10-17T08:09:23.093Z,21.60
2018-10-17T08:10:23.078Z,21.60
2018-10-17T08:11:23.055Z,21.70
2018-10-17T08:12:23.120Z,21.40
2018-10-17T08:13:23.018Z,23.10
2018-10-17T08:14:23.000Z,21.80
2018-10-17T08:15:22.979Z,21.80
2018-10-17T08:16:22.957Z,21.80
2018-10-17T08:17:22.940Z,22.00
2018-10-17T08:18:22.923Z,21.70
2018-10-17T08:19:22.913Z,21.00
2018-10-17T08:20:22.884Z,20.80
2018-10-17T08:21:22.924Z,22.00
2018-10-17T08:22:22.843Z,22.40
2018-10-17T08:23:22.825Z,22.30
2018-10-17T08:24:22.803Z,22.60
2018-10-17T08:25:22.792Z,23.60
2018-10-17T08:26:22.765Z,22.30
2018-10-17T08:27:22.794Z,23.50
2018-10-17T08:28:22.733Z,22.50
2018-10-17T08:29:22.709Z,22.60
2018-10-17T08:30:22.691Z,22.00
2018-10-17T08:31:22.773Z,21.60
2018-10-17T08:32:22.651Z,23.10
2018-10-17T08:33:22.639Z,22.60
2018-10-17T08:34:22.616Z,21.50
2018-10-17T08:35:22.651Z,22.40
2018-10-17T08:36:22.771Z,22.50
2018-10-17T08:37:23.038Z,22.70
2018-10-17T08:38:22.545Z,22.70
2018-10-17T08:39:22.524Z,22.30
2018-10-17T08:40:22.501Z,22.40
2018-10-17T08:41:22.572Z,21.80
2018-10-17T08:42:22.467Z,24.60
2018-10-17T08:43:22.453Z,22.30
2018-10-17T08:44:22.429Z,22.80
2018-10-17T08:45:22.414Z,22.50
2018-10-17T08:46:22.403Z,21.20
2018-10-17T08:47:22.379Z,21.40
2018-10-17T08:48:22.361Z,22.40
2018-10-17T08:49:22.341Z,21.70
2018-10-17T08:50:22.323Z,20.90
2018-10-17T08:51:22.304Z,22.10
2018-10-17T08:52:22.290Z,22.00
2018-10-17T08:53:22.275Z,20.90
2018-10-17T08:54:22.254Z,22.70
2018-10-17T08:55:22.239Z,22.00
2018-10-17T08:56:22.215Z,21.20
2018-10-17T08:57:22.199Z,21.60
2018-10-17T08:58:22.182Z,20.90
2018-10-17T08:59:22.163Z,21.00
2018-10-17T09:00:22.147Z,20.50
2018-10-17T09:01:22.131Z,21.10
2018-10-17T09:02:22.112Z,20.40
2018-10-17T09:03:22.093Z,20.30
2018-10-17T09:04:22.078Z,19.90
2018-10-17T09:05:22.060Z,20.40
2018-10-17T09:06:22.043Z,19.30
2018-10-17T09:07:22.028Z,20.20
2018-10-17T09:08:22.117Z,20.10
2018-10-17T09:09:21.997Z,19.60
2018-10-17T09:10:21.981Z,19.70
2018-10-17T09:11:21.965Z,19.50
2018-10-17T09:12:21.951Z,19.30
2018-10-17T09:13:21.988Z,19.70
2018-10-17T09:14:21.919Z,19.40
2018-10-17T09:15:21.893Z,18.80
2018-10-17T09:16:22.053Z,20.40
2018-10-17T09:17:21.864Z,17.80
2018-10-17T09:18:21.845Z,18.30
2018-10-17T09:19:21.927Z,19.80
2018-10-17T09:20:22.061Z,18.00
2018-10-17T09:21:22.218Z,19.70
2018-10-17T09:22:21.971Z,19.60
2018-10-17T09:23:21.780Z,19.40
2018-10-17T09:24:21.757Z,19.40
2018-10-17T09:25:21.741Z,20.60
2018-10-17T09:26:21.726Z,20.00
2018-10-17T09:27:21.712Z,19.90
2018-10-17T09:28:21.697Z,18.90
2018-10-17T09:29:21.678Z,19.80
2018-10-17T09:30:21.798Z,19.90
2018-10-17T09:31:21.646Z,18.30
2018-10-17T09:32:21.633Z,18.20
2018-10-17T09:33:21.618Z,18.90
2018-10-17T09:34:21.605Z,18.60
2018-10-17T09:35:21.620Z,18.00
2018-10-17T09:36:21.577Z,18.40
2018-10-17T09:37:21.560Z,16.90
2018-10-17T09:38:21.550Z,17.50
2018-10-17T09:39:21.535Z,19.10
2018-10-17T09:40:21.519Z,16.70
2018-10-17T09:41:21.503Z,17.00
2018-10-17T09:42:21.573Z,15.80
2018-10-17T09:43:21.533Z,15.90
2018-10-17T09:44:21.459Z,15.90
2018-10-17T09:45:21.454Z,15.30
2018-10-17T09:46:21.435Z,15.70
2018-10-17T09:47:21.423Z,14.90
2018-10-17T09:48:21.408Z,15.10
2018-10-17T09:49:21.430Z,14.90
2018-10-17T09:50:21.383Z,14.30
2018-10-17T09:51:21.368Z,14.70
2018-10-17T09:52:21.358Z,13.80
2018-10-17T09:53:21.417Z,14.50
2018-10-17T09:54:21.381Z,15.50
2018-10-17T09:55:21.320Z,15.50
2018-10-17T09:56:21.308Z,13.50
2018-10-17T09:57:21.296Z,16.20
2018-10-17T09:58:21.280Z,14.60
2018-10-17T09:59:21.410Z,13.70
2018-10-17T10:00:21.255Z,14.40
2018-10-17T10:01:21.249Z,13.80
2018-10-17T10:02:21.372Z,13.90
2018-10-17T10:03:21.219Z,13.60
2018-10-17T10:04:21.333Z,13.80
2018-10-17T10:05:21.209Z,14.50
2018-10-17T10:06:21.182Z,14.00
2018-10-17T10:07:21.170Z,14.90
2018-10-17T10:08:21.175Z,13.20
2018-10-17T10:09:21.220Z,14.70
2018-10-17T10:10:21.138Z,13.50
2018-10-17T10:11:21.127Z,13.80
2018-10-17T10:12:21.113Z,11.80
2018-10-17T10:13:21.110Z,15.10
2018-10-17T10:14:21.199Z,12.10
2018-10-17T10:15:21.081Z,11.60
2018-10-17T10:16:21.073Z,12.80
2018-10-17T10:17:21.218Z,13.40
2018-10-17T10:18:21.043Z,12.70
2018-10-17T10:19:21.120Z,13.30
2018-10-17T10:20:21.024Z,14.90
2018-10-17T10:21:21.010Z,12.20
2018-10-17T10:22:21.009Z,12.50
2018-10-17T10:23:20.997Z,12.80
2018-10-17T10:24:21.112Z,13.90
2018-10-17T10:25:21.047Z,12.70
2018-10-17T10:26:20.968Z,13.00
2018-10-17T10:27:20.955Z,12.90
2018-10-17T10:28:21.073Z,13.30
2018-10-17T10:29:20.932Z,12.90
2018-10-17T10:30:21.011Z,12.20
2018-10-17T10:31:20.915Z,12.50
2018-10-17T10:32:20.901Z,12.70
2018-10-17T10:33:20.897Z,12.80
2018-10-17T10:34:21.077Z,12.50
2018-10-17T10:35:20.879Z,12.80
2018-10-17T10:36:20.866Z,13.20
2018-10-17T10:37:20.861Z,12.20
2018-10-17T10:38:20.850Z,11.90
2018-10-17T10:39:20.840Z,12.10
2018-10-17T10:40:20.831Z,11.70
2018-10-17T10:41:20.830Z,11.40
2018-10-17T10:42:20.813Z,11.00
2018-10-17T10:43:20.805Z,10.70
2018-10-17T10:44:20.958Z,10.40
2018-10-17T10:45:20.988Z,10.60
2018-10-17T10:46:20.788Z,11.40
2018-10-17T10:47:20.775Z,12.40
2018-10-17T10:48:20.780Z,11.00
2018-10-17T10:49:20.817Z,9.90
2018-10-17T10:50:20.819Z,11.00
2018-10-17T10:51:20.798Z,12.20
2018-10-17T10:52:20.737Z,9.80
2018-10-17T10:53:20.726Z,12.40
2018-10-17T10:54:20.848Z,10.00
2018-10-17T10:55:20.714Z,9.00
2018-10-17T10:56:20.702Z,10.30
2018-10-17T10:57:20.699Z,11.50
2018-10-17T10:58:20.760Z,9.00
2018-10-17T10:59:20.815Z,8.80
2018-10-17T11:00:20.769Z,10.30
2018-10-17T11:01:20.664Z,8.50
2018-10-17T11:02:20.657Z,10.10
2018-10-17T11:03:20.651Z,9.00
2018-10-17T11:04:20.647Z,10.60
2018-10-17T11:05:20.787Z,9.10
2018-10-17T11:06:20.630Z,7.80
2018-10-17T11:07:20.625Z,8.50
2018-10-17T11:08:20.617Z,7.90
2018-10-17T11:09:20.613Z,9.30
2018-10-17T11:10:20.605Z,7.60
2018-10-17T11:11:20.643Z,8.60
2018-10-17T11:12:20.585Z,8.00
2018-10-17T11:13:20.583Z,8.10
2018-10-17T11:14:20.809Z,9.30
2018-10-17T11:15:20.569Z,8.30
2018-10-17T11:16:20.564Z,7.70
2018-10-17T11:17:20.564Z,8.90
2018-10-17T11:18:20.551Z,8.60
2018-10-17T11:19:20.545Z,8.10
2018-10-17T11:20:20.543Z,8.90
2018-10-17T11:21:20.535Z,8.30
2018-10-17T11:22:20.528Z,9.50
2018-10-17T11:23:20.620Z,10.00
2018-10-17T11:24:20.519Z,9.60
2018-10-17T11:25:20.514Z,9.30
2018-10-17T11:26:20.506Z,8.20
2018-10-17T11:27:20.505Z,10.20
2018-10-17T11:28:20.494Z,9.60
2018-10-17T11:29:20.493Z,10.00
2018-10-17T11:30:20.485Z,8.80
2018-10-17T11:31:20.527Z,9.20
2018-10-17T11:32:20.480Z,9.00
2018-10-17T11:33:20.473Z,8.90
2018-10-17T11:34:20.465Z,8.40
2018-10-17T11:35:20.457Z,7.70
2018-10-17T11:36:20.456Z,8.00
2018-10-17T11:37:20.530Z,11.30
2018-10-17T11:38:20.443Z,8.80
2018-10-17T11:39:20.441Z,8.30
2018-10-17T11:40:20.502Z,7.50
2018-10-17T11:41:20.585Z,8.70
2018-10-17T11:42:20.423Z,7.60
2018-10-17T11:43:20.422Z,8.80
2018-10-17T11:44:20.419Z,7.30
2018-10-17T11:45:20.414Z,8.40
2018-10-17T11:46:20.412Z,7.20
2018-10-17T11:47:20.405Z,6.20
2018-10-17T11:48:20.403Z,7.70
2018-10-17T11:49:20.396Z,6.90
2018-10-17T11:50:20.440Z,7.60
2018-10-17T11:51:20.388Z,8.00
2018-10-17T11:52:20.383Z,7.70
2018-10-17T11:53:20.377Z,8.20
2018-10-17T11:54:20.373Z,8.40
2018-10-17T11:55:20.377Z,7.10
2018-10-17T11:56:20.365Z,8.90
2018-10-17T11:57:20.421Z,8.70
2018-10-17T11:58:20.359Z,7.90
2018-10-17T11:59:20.473Z,9.90
2018-10-17T12:00:20.352Z,10.40
2018-10-17T12:01:20.351Z,7.10
2018-10-17T12:02:20.338Z,10.20
2018-10-17T12:03:20.404Z,6.80
2018-10-17T12:04:20.644Z,8.40
2018-10-17T12:05:20.523Z,8.20
2018-10-17T12:06:20.352Z,7.40
2018-10-17T12:07:20.318Z,8.10
2018-10-17T12:08:20.311Z,8.40
2018-10-17T12:09:20.311Z,6.70
2018-10-17T12:10:20.304Z,7.00
2018-10-17T12:11:20.416Z,7.20
2018-10-17T12:12:20.376Z,10.10
2018-10-17T12:13:20.286Z,7.70
2018-10-17T12:14:20.284Z,10.10
2018-10-17T12:15:20.293Z,7.30
2018-10-17T12:16:20.270Z,6.90
2018-10-17T12:17:20.265Z,7.30
2018-10-17T12:18:20.257Z,8.50
2018-10-17T12:19:20.254Z,7.10
2018-10-17T12:20:20.247Z,8.80
2018-10-17T12:21:20.297Z,10.20
2018-10-17T12:22:20.235Z,8.50
2018-10-17T12:23:20.239Z,8.90
2018-10-17T12:24:20.236Z,7.40
2018-10-17T12:25:20.215Z,8.90
2018-10-17T12:26:20.215Z,10.80
2018-10-17T12:27:20.333Z,8.30
2018-10-17T12:28:20.215Z,9.40
2018-10-17T12:29:20.191Z,9.00
2018-10-17T12:30:20.186Z,7.00
2018-10-17T12:31:20.180Z,7.90
2018-10-17T12:32:20.168Z,7.30
2018-10-17T12:33:20.164Z,9.60
2018-10-17T12:34:20.154Z,8.30
2018-10-17T12:35:20.241Z,7.90
2018-10-17T12:36:20.138Z,7.50
2018-10-17T12:37:20.132Z,9.30
2018-10-17T12:38:20.122Z,9.50
2018-10-17T12:39:20.140Z,7.70
2018-10-17T12:40:20.270Z,8.70
2018-10-17T12:41:20.133Z,7.90
2018-10-17T12:42:20.086Z,7.70
2018-10-17T12:43:20.086Z,8.20
2018-10-17T12:44:20.132Z,8.10
2018-10-17T12:45:20.091Z,10.10
2018-10-17T12:46:20.059Z,8.80
2018-10-17T12:47:20.050Z,9.20
2018-10-17T12:48:20.039Z,8.20
2018-10-17T12:49:20.042Z,9.90
2018-10-17T12:50:20.065Z,9.50
2018-10-17T12:51:20.014Z,11.10
2018-10-17T12:52:20.024Z,9.60
2018-10-17T12:53:20.016Z,9.40
2018-10-17T12:54:19.984Z,8.40
2018-10-17T12:55:19.974Z,9.70
2018-10-17T12:56:19.963Z,8.80